Time;durP1;ratioP1;P1;durP2;ratioP2;P2;SDS_P1;SDS_P2;PMS_P1;PMS_P2;Temp;Humidity;BMP_temperature;BMP_pressure;BME280_temperature;BME280_humidity;BME280_pressure;Samples;Min_cycle;Max_cycle;Signal;HPM_P1;HPM_P2
2023/07/28 00:01:35;;;;;;;2.00;1.15;;;17.80;99.90;;;;;;5002107;28;87713;-80
2023/07/28 00:04:04;;;;;;;2.45;1.58;;;17.80;99.90;;;;;;4986953;28;88907;-81
2023/07/28 00:06:29;;;;;;;4.00;1.58;;;17.80;99.90;;;;;;4988295;28;90025;-81
2023/07/28 00:08:55;;;;;;;1.90;1.48;;;17.80;99.90;;;;;;5008478;27;88517;-80
2023/07/28 00:11:20;;;;;;;3.80;1.38;;;17.80;99.90;;;;;;4987610;28;88872;-80
2023/07/28 00:13:46;;;;;;;3.90;1.20;;;17.80;99.90;;;;;;5006932;27;87297;-80
2023/07/28 00:16:14;;;;;;;2.17;1.33;;;17.80;99.90;;;;;;5007288;27;88152;-81
2023/07/28 00:18:39;;;;;;;1.98;1.30;;;17.80;99.90;;;;;;5004097;28;88084;-81
2023/07/28 00:21:06;;;;;;;1.92;1.23;;;17.90;99.90;;;;;;5005793;28;87512;-81
2023/07/28 00:23:31;;;;;;;2.72;1.52;;;17.90;99.90;;;;;;5004105;27;87499;-81
2023/07/28 00:25:57;;;;;;;3.53;1.60;;;17.90;99.90;;;;;;5006248;28;89143;-80
2023/07/28 00:28:22;;;;;;;3.05;2.05;;;17.90;99.90;;;;;;4989638;28;90518;-80
2023/07/28 00:30:51;;;;;;;2.30;1.48;;;17.90;99.90;;;;;;4988231;28;87879;-80
2023/07/28 00:33:17;;;;;;;3.97;2.03;;;17.90;99.90;;;;;;5006304;28;87598;-81
2023/07/28 00:35:42;;;;;;;3.33;1.98;;;17.90;99.90;;;;;;4987157;28;91384;-80
2023/07/28 00:38:09;;;;;;;6.13;2.00;;;17.90;99.90;;;;;;5006499;27;89752;-80
2023/07/28 00:40:35;;;;;;;4.80;1.83;;;17.90;99.90;;;;;;5005768;28;87798;-81
2023/07/28 00:43:01;;;;;;;3.83;1.70;;;17.90;99.90;;;;;;5004501;28;87968;-80
2023/07/28 00:45:27;;;;;;;4.45;2.60;;;17.90;99.90;;;;;;4987258;28;90874;-80
2023/07/28 00:47:54;;;;;;;4.50;2.33;;;17.90;99.90;;;;;;4988713;28;91081;-80
2023/07/28 00:50:20;;;;;;;3.97;1.88;;;17.90;99.90;;;;;;5005921;28;87636;-80
2023/07/28 00:52:46;;;;;;;6.72;2.60;;;17.90;99.90;;;;;;4988017;28;89000;-80
2023/07/28 00:55:12;;;;;;;4.90;2.30;;;17.80;99.90;;;;;;5006303;28;88135;-81
2023/07/28 00:57:39;;;;;;;5.13;2.42;;;17.90;99.90;;;;;;5005852;28;88100;-81
2023/07/28 01:00:05;;;;;;;6.57;2.72;;;17.80;99.90;;;;;;4990722;28;88528;-81
2023/07/28 01:02:31;;;;;;;4.05;2.30;;;17.90;99.90;;;;;;5005210;28;87598;-80
2023/07/28 01:04:57;;;;;;;5.22;2.60;;;17.90;99.90;;;;;;5005349;28;88552;-80
2023/07/28 01:07:26;;;;;;;4.90;2.42;;;17.80;99.90;;;;;;4986707;28;91504;-80
2023/07/28 01:10:12;;;;;;;37.67;3.40;;;17.80;99.90;;;;;;5005884;28;87522;-81
2023/07/28 01:12:38;;;;;;;5.63;2.80;;;17.80;99.90;;;;;;5004791;28;87520;-81
2023/07/28 01:15:04;;;;;;;8.07;2.92;;;17.80;99.90;;;;;;5007321;28;88648;-80
2023/07/28 01:17:30;;;;;;;4.30;2.63;;;17.80;99.90;;;;;;5004228;28;88071;-79
2023/07/28 01:19:55;;;;;;;4.80;2.58;;;17.80;99.90;;;;;;5005013;28;89417;-81
2023/07/28 01:22:33;;;;;;;7.93;2.38;;;17.80;99.90;;;;;;5004673;28;87642;-80
2023/07/28 01:25:37;;;;;;;21.10;3.55;;;17.80;99.90;;;;;;5001694;28;92629;-80
2023/07/28 01:28:04;;;;;;;4.55;1.88;;;17.80;99.90;;;;;;4990864;28;88086;-81
2023/07/28 01:30:30;;;;;;;8.95;2.80;;;17.80;99.90;;;;;;5009010;28;87773;-81
2023/07/28 01:32:57;;;;;;;3.92;2.47;;;17.80;99.90;;;;;;4998674;28;87514;-81
2023/07/28 01:35:23;;;;;;;4.95;2.80;;;17.80;99.90;;;;;;5003242;28;88047;-81
2023/07/28 01:37:50;;;;;;;5.60;2.33;;;17.80;99.90;;;;;;4987295;28;91302;-82
2023/07/28 01:40:19;;;;;;;5.70;2.85;;;17.80;99.90;;;;;;4987801;28;88130;-82
2023/07/28 01:42:45;;;;;;;4.22;2.53;;;17.80;99.90;;;;;;4988090;28;89250;-81
2023/07/28 01:45:11;;;;;;;5.15;2.55;;;17.80;99.90;;;;;;5007610;28;88507;-81
2023/07/28 01:47:37;;;;;;;11.48;2.85;;;17.80;99.90;;;;;;5021474;28;89798;-82
2023/07/28 01:50:03;;;;;;;3.30;2.55;;;17.80;99.90;;;;;;5005851;27;88790;-82
2023/07/28 01:52:28;;;;;;;6.78;2.80;;;17.80;99.90;;;;;;4989769;28;89698;-83
2023/07/28 01:54:54;;;;;;;10.68;3.15;;;17.80;99.90;;;;;;5005949;27;88574;-82
2023/07/28 01:57:19;;;;;;;6.90;2.83;;;17.80;99.90;;;;;;5003113;28;87695;-82
2023/07/28 01:59:45;;;;;;;4.18;2.60;;;17.80;99.90;;;;;;4987891;28;87408;-82
2023/07/28 02:02:11;;;;;;;4.93;2.47;;;17.80;99.90;;;;;;5005887;27;87073;-82
2023/07/28 02:04:36;;;;;;;5.03;2.53;;;17.80;99.90;;;;;;4985572;28;90833;-82
2023/07/28 02:07:02;;;;;;;4.35;2.47;;;17.80;99.90;;;;;;5002743;28;94780;-81
2023/07/28 02:09:27;;;;;;;4.35;2.63;;;17.80;99.90;;;;;;5006886;28;87475;-81
2023/07/28 02:11:53;;;;;;;5.10;2.90;;;17.80;99.90;;;;;;4984897;28;89071;-81
2023/07/28 02:14:19;;;;;;;3.92;2.85;;;17.80;99.90;;;;;;5005759;28;89483;-81
2023/07/28 02:16:44;;;;;;;5.53;2.53;;;17.80;99.90;;;;;;5004797;28;89130;-81
2023/07/28 02:19:10;;;;;;;7.78;2.92;;;17.80;99.90;;;;;;5002180;28;87310;-81
2023/07/28 02:21:36;;;;;;;5.05;2.40;;;17.80;99.90;;;;;;5004507;28;87862;-81
2023/07/28 02:24:01;;;;;;;4.50;2.38;;;17.80;99.90;;;;;;5003228;28;88588;-81
2023/07/28 02:26:27;;;;;;;5.60;2.20;;;17.90;99.90;;;;;;5005334;28;93541;-82
2023/07/28 02:28:52;;;;;;;5.13;3.17;;;17.90;99.90;;;;;;5005654;28;87051;-81
2023/07/28 02:31:18;;;;;;;3.30;2.67;;;17.90;99.90;;;;;;5003922;28;87004;-81
2023/07/28 02:33:44;;;;;;;6.20;2.83;;;17.90;99.90;;;;;;5004297;28;87678;-81
2023/07/28 02:36:09;;;;;;;7.20;3.03;;;17.90;99.90;;;;;;5006561;28;88723;-81
2023/07/28 02:38:35;;;;;;;7.82;3.20;;;17.90;99.90;;;;;;5002676;28;88778;-81
2023/07/28 02:41:01;;;;;;;4.80;3.15;;;17.90;99.90;;;;;;5003767;28;87829;-81
2023/07/28 02:43:26;;;;;;;5.72;3.22;;;18.00;99.90;;;;;;5005463;28;88905;-81
2023/07/28 02:45:56;;;;;;;6.63;3.10;;;17.90;99.90;;;;;;5003594;28;88606;-81
2023/07/28 02:48:22;;;;;;;6.75;3.10;;;17.90;99.90;;;;;;5004857;28;87863;-81
2023/07/28 02:50:50;;;;;;;5.03;2.80;;;17.90;99.90;;;;;;5006093;27;87470;-81
2023/07/28 02:53:16;;;;;;;8.57;3.22;;;17.90;99.90;;;;;;4993757;28;90114;-81
2023/07/28 02:55:42;;;;;;;6.68;2.92;;;18.00;99.90;;;;;;5004782;28;88103;-81
2023/07/28 02:58:08;;;;;;;6.10;3.17;;;18.00;99.90;;;;;;5019782;28;87572;-81
2023/07/28 03:00:40;;;;;;;6.05;3.10;;;18.00;99.90;;;;;;5004899;28;87750;-82
2023/07/28 03:03:07;;;;;;;5.72;3.10;;;18.00;99.90;;;;;;5020484;28;92403;-81
2023/07/28 03:05:33;;;;;;;4.15;3.20;;;18.00;99.90;;;;;;4985808;28;91007;-81
2023/07/28 03:07:58;;;;;;;7.03;3.60;;;18.00;99.90;;;;;;5001996;28;87470;-82
2023/07/28 03:10:24;;;;;;;7.82;3.53;;;18.00;99.90;;;;;;4985227;28;89546;-81
2023/07/28 03:12:50;;;;;;;6.55;3.70;;;18.00;99.90;;;;;;5003654;28;88290;-82
2023/07/28 03:15:16;;;;;;;7.30;4.07;;;18.00;99.90;;;;;;5005146;28;87742;-81
2023/07/28 03:17:41;;;;;;;6.40;4.63;;;18.00;99.90;;;;;;5004079;28;87768;-81
2023/07/28 03:20:07;;;;;;;9.98;4.43;;;18.00;99.90;;;;;;5006372;28;87003;-81
2023/07/28 03:22:33;;;;;;;5.65;4.10;;;18.00;99.90;;;;;;5004785;27;88530;-81
2023/07/28 03:24:59;;;;;;;9.63;4.50;;;18.00;99.90;;;;;;5004855;28;87551;-81
2023/07/28 03:27:24;;;;;;;8.40;4.72;;;18.00;99.90;;;;;;5004041;28;88837;-81
2023/07/28 03:29:50;;;;;;;8.15;4.93;;;18.00;99.90;;;;;;5003410;28;87938;-81
2023/07/28 03:32:16;;;;;;;5.70;4.75;;;18.00;99.90;;;;;;5017592;28;91747;-81
2023/07/28 03:34:42;;;;;;;9.85;4.80;;;18.00;99.90;;;;;;5003423;28;87962;-81
2023/07/28 03:37:08;;;;;;;8.15;5.05;;;18.00;99.90;;;;;;5005399;28;88069;-81
2023/07/28 03:39:34;;;;;;;7.47;4.15;;;18.00;99.90;;;;;;5005585;27;87857;-81
2023/07/28 03:41:59;;;;;;;9.55;4.95;;;18.00;99.90;;;;;;4991245;28;91719;-81
2023/07/28 03:44:25;;;;;;;11.60;5.03;;;18.00;99.90;;;;;;5009311;28;88505;-81
2023/07/28 03:46:51;;;;;;;9.82;5.20;;;18.00;99.90;;;;;;5007102;28;87053;-81
2023/07/28 03:49:16;;;;;;;8.85;4.90;;;18.00;99.90;;;;;;5005418;28;87671;-81
2023/07/28 03:51:42;;;;;;;10.77;4.78;;;18.00;99.90;;;;;;5006455;28;92992;-81
2023/07/28 03:54:08;;;;;;;9.02;4.88;;;18.00;99.90;;;;;;5006450;28;89045;-80
2023/07/28 03:56:33;;;;;;;10.13;5.00;;;18.00;99.90;;;;;;5007480;27;87810;-81
2023/07/28 03:58:59;;;;;;;6.45;4.40;;;18.00;99.90;;;;;;4988178;28;90607;-81
2023/07/28 04:01:25;;;;;;;7.65;4.78;;;18.10;99.90;;;;;;4988022;28;91891;-81
2023/07/28 04:03:50;;;;;;;12.43;4.65;;;18.10;99.90;;;;;;5006762;28;87719;-81
2023/07/28 04:06:16;;;;;;;7.88;4.55;;;18.10;99.90;;;;;;4988626;28;87659;-80
2023/07/28 04:08:42;;;;;;;7.10;5.10;;;18.00;99.90;;;;;;5006656;28;87437;-81
2023/07/28 04:11:08;;;;;;;10.63;4.80;;;18.10;99.90;;;;;;5007181;28;88568;-81
2023/07/28 04:13:34;;;;;;;21.42;5.40;;;18.10;99.90;;;;;;5007314;27;88652;-81
2023/07/28 04:16:00;;;;;;;9.70;4.65;;;18.10;99.90;;;;;;5006707;28;88707;-80
2023/07/28 04:18:25;;;;;;;10.23;4.07;;;18.10;99.90;;;;;;5005658;28;87817;-80
2023/07/28 04:20:51;;;;;;;8.27;4.10;;;18.10;99.90;;;;;;4988595;28;90959;-81
2023/07/28 04:23:17;;;;;;;7.50;4.20;;;18.20;99.90;;;;;;5006623;28;88396;-80
2023/07/28 04:25:42;;;;;;;12.35;4.57;;;18.10;99.90;;;;;;5007525;28;87526;-81
2023/07/28 04:28:08;;;;;;;6.03;4.03;;;18.10;99.90;;;;;;5005715;27;87958;-81
2023/07/28 04:30:34;;;;;;;7.28;4.45;;;18.10;99.90;;;;;;5004468;28;87692;-81
2023/07/28 04:33:00;;;;;;;7.07;3.72;;;18.10;99.90;;;;;;5005904;28;88395;-80
2023/07/28 04:35:26;;;;;;;5.25;3.95;;;18.10;99.90;;;;;;5004866;28;87821;-81
2023/07/28 04:37:51;;;;;;;5.78;3.83;;;18.10;99.90;;;;;;5006400;27;87820;-80
2023/07/28 04:40:17;;;;;;;6.53;4.00;;;18.10;99.90;;;;;;5006711;28;89096;-81
2023/07/28 04:42:42;;;;;;;7.60;3.92;;;18.10;99.90;;;;;;5006543;28;89326;-80
2023/07/28 04:45:08;;;;;;;4.32;3.22;;;18.10;99.90;;;;;;5005887;28;87599;-81
2023/07/28 04:47:34;;;;;;;12.57;3.30;;;18.10;99.90;;;;;;5007033;28;87766;-81
2023/07/28 04:50:00;;;;;;;4.70;2.70;;;18.20;99.90;;;;;;4995747;28;89036;-81
2023/07/28 04:52:25;;;;;;;7.30;2.85;;;18.20;99.90;;;;;;4988580;28;91550;-80
2023/07/28 04:54:51;;;;;;;7.38;3.60;;;18.20;99.90;;;;;;5005402;28;87649;-81
2023/07/28 04:57:19;;;;;;;8.18;3.50;;;18.20;99.90;;;;;;5007607;28;87496;-80
2023/07/28 04:59:44;;;;;;;7.15;2.47;;;18.20;99.90;;;;;;4996539;28;90270;-80
2023/07/28 05:02:10;;;;;;;7.38;2.60;;;18.20;99.90;;;;;;5006042;28;88318;-80
2023/07/28 05:04:36;;;;;;;4.72;2.17;;;18.30;99.90;;;;;;5005322;27;88853;-81
2023/07/28 05:07:02;;;;;;;3.00;2.30;;;18.30;99.90;;;;;;4988981;28;91177;-81
2023/07/28 05:09:28;;;;;;;4.82;2.83;;;18.30;99.90;;;;;;5007689;28;88713;-81
2023/07/28 05:11:54;;;;;;;6.80;2.95;;;18.30;99.90;;;;;;5004979;27;88607;-81
2023/07/28 05:14:20;;;;;;;4.97;2.35;;;18.30;99.90;;;;;;5004875;28;87868;-81
2023/07/28 05:16:46;;;;;;;6.07;2.70;;;18.30;99.90;;;;;;4986963;28;87881;-80
2023/07/28 05:19:12;;;;;;;8.07;2.95;;;18.30;99.90;;;;;;4988010;28;91730;-81
2023/07/28 05:21:38;;;;;;;8.43;3.00;;;18.40;99.90;;;;;;4986940;28;91298;-81
2023/07/28 05:24:04;;;;;;;6.18;2.40;;;18.30;99.90;;;;;;5007533;28;87944;-80
2023/07/28 05:26:30;;;;;;;7.95;2.35;;;18.30;99.90;;;;;;5005094;28;87898;-80
2023/07/28 05:28:55;;;;;;;6.90;2.80;;;18.40;99.90;;;;;;5000282;28;91072;-81
2023/07/28 05:31:21;;;;;;;8.13;2.25;;;18.40;99.90;;;;;;5003896;28;92793;-80
2023/07/28 05:33:46;;;;;;;3.63;2.28;;;18.40;99.90;;;;;;5004421;28;87085;-81
2023/07/28 05:36:12;;;;;;;4.00;2.33;;;18.40;99.90;;;;;;5005704;28;87824;-80
2023/07/28 05:38:38;;;;;;;5.50;2.10;;;18.40;99.90;;;;;;5007635;27;88514;-80
2023/07/28 05:41:04;;;;;;;3.53;2.10;;;18.40;99.90;;;;;;5006042;28;87533;-80
2023/07/28 05:43:31;;;;;;;5.43;2.42;;;18.40;99.90;;;;;;5004818;28;87904;-81
2023/07/28 05:45:57;;;;;;;5.88;2.25;;;18.40;99.90;;;;;;5005662;28;88284;-80
2023/07/28 05:48:22;;;;;;;4.97;2.00;;;18.40;99.90;;;;;;5004067;28;91528;-80
2023/07/28 05:50:48;;;;;;;3.45;2.25;;;18.40;99.90;;;;;;4987598;28;90415;-80
2023/07/28 05:53:14;;;;;;;2.67;1.92;;;18.50;99.90;;;;;;5003568;27;88650;-80
2023/07/28 05:55:40;;;;;;;6.45;2.47;;;18.50;99.90;;;;;;5002073;28;88108;-80
2023/07/28 05:58:05;;;;;;;6.03;2.10;;;18.50;99.90;;;;;;4986207;28;91700;-80
2023/07/28 06:00:31;;;;;;;7.13;2.10;;;18.60;99.90;;;;;;5006514;28;88374;-80
2023/07/28 06:02:57;;;;;;;5.00;1.67;;;18.60;99.90;;;;;;5003269;28;87750;-80
2023/07/28 06:05:23;;;;;;;5.45;1.65;;;18.60;99.90;;;;;;5005995;27;87798;-80
2023/07/28 06:07:48;;;;;;;4.75;1.98;;;18.60;99.90;;;;;;5006501;27;87786;-80
2023/07/28 06:10:14;;;;;;;8.57;1.48;;;18.60;99.90;;;;;;5004620;28;88325;-80
2023/07/28 06:12:39;;;;;;;3.38;1.50;;;18.60;99.90;;;;;;4987210;28;87605;-80
2023/07/28 06:15:06;;;;;;;6.47;1.58;;;18.70;99.90;;;;;;4988661;28;89317;-80
2023/07/28 06:17:31;;;;;;;5.90;1.83;;;18.70;99.90;;;;;;4984889;28;92838;-80
2023/07/28 06:19:57;;;;;;;11.18;2.35;;;18.70;99.90;;;;;;5003921;28;89166;-80
2023/07/28 06:22:23;;;;;;;3.40;1.20;;;18.80;99.90;;;;;;4994755;28;87700;-80
2023/07/28 06:24:50;;;;;;;11.05;1.38;;;18.80;99.90;;;;;;5003237;28;87547;-81
2023/07/28 06:27:15;;;;;;;5.78;1.15;;;18.80;99.90;;;;;;4987216;28;92078;-80
2023/07/28 06:29:41;;;;;;;2.58;1.45;;;18.80;99.90;;;;;;5005234;28;88786;-82
2023/07/28 06:32:07;;;;;;;4.88;1.50;;;18.90;99.90;;;;;;4985894;28;88147;-82
2023/07/28 06:34:33;;;;;;;2.72;1.63;;;18.90;99.90;;;;;;4995551;28;91434;-82
2023/07/28 06:36:58;;;;;;;4.47;1.20;;;19.00;99.90;;;;;;5005831;28;88479;-82
2023/07/28 06:39:24;;;;;;;3.45;1.20;;;19.00;99.90;;;;;;4987120;28;89783;-82
2023/07/28 06:41:50;;;;;;;4.15;1.35;;;19.10;99.90;;;;;;4987701;28;88953;-82
2023/07/28 06:44:16;;;;;;;1.52;0.85;;;19.10;99.90;;;;;;5004849;28;87242;-82
2023/07/28 06:46:42;;;;;;;5.07;1.00;;;19.20;99.90;;;;;;5003043;27;89567;-83
2023/07/28 06:49:07;;;;;;;2.05;1.10;;;19.30;99.90;;;;;;4982789;28;91261;-81
2023/07/28 06:51:33;;;;;;;1.13;0.80;;;19.30;99.90;;;;;;5003596;28;87742;-80
2023/07/28 06:53:59;;;;;;;6.07;1.02;;;19.30;99.90;;;;;;5003607;28;87581;-81
2023/07/28 06:56:25;;;;;;;3.53;1.23;;;19.40;99.90;;;;;;5003609;28;88618;-81
2023/07/28 06:58:51;;;;;;;2.33;0.73;;;19.40;99.90;;;;;;5003695;28;87402;-80
2023/07/28 07:01:17;;;;;;;6.13;1.30;;;19.40;99.90;;;;;;4987247;28;87358;-80
2023/07/28 07:03:43;;;;;;;1.73;1.13;;;19.50;99.90;;;;;;4984417;28;89340;-80
2023/07/28 07:06:09;;;;;;;2.30;1.08;;;19.50;99.90;;;;;;4994210;28;92683;-80
2023/07/28 07:08:34;;;;;;;1.38;0.77;;;19.60;99.90;;;;;;5005121;28;89023;-81
2023/07/28 07:11:00;;;;;;;2.05;0.80;;;19.50;99.90;;;;;;4983505;28;87813;-81
2023/07/28 07:13:26;;;;;;;0.70;0.70;;;19.50;99.90;;;;;;4983079;28;90664;-81
2023/07/28 07:15:51;;;;;;;1.75;0.80;;;19.50;99.90;;;;;;4988722;28;90613;-81
2023/07/28 07:18:17;;;;;;;1.05;0.95;;;19.50;99.90;;;;;;5007184;28;88842;-81
2023/07/28 07:20:43;;;;;;;1.42;1.10;;;19.50;99.90;;;;;;4992172;28;87725;-81
2023/07/28 07:23:08;;;;;;;1.38;0.90;;;19.50;99.90;;;;;;4990511;28;90168;-81
2023/07/28 07:25:34;;;;;;;3.30;1.10;;;19.50;99.90;;;;;;5005890;28;88163;-81
2023/07/28 07:27:59;;;;;;;4.80;1.50;;;19.50;99.90;;;;;;5022582;27;89765;-81
2023/07/28 07:30:25;;;;;;;1.88;1.20;;;19.60;99.90;;;;;;4989609;28;88882;-81
2023/07/28 07:32:51;;;;;;;4.28;1.25;;;19.60;99.90;;;;;;4988238;28;90411;-81
2023/07/28 07:35:16;;;;;;;2.63;1.58;;;19.60;99.90;;;;;;4987779;28;91408;-80
2023/07/28 07:37:43;;;;;;;3.42;1.17;;;19.70;99.90;;;;;;4989185;28;90126;-81
2023/07/28 07:40:09;;;;;;;3.15;0.90;;;19.70;99.90;;;;;;5009348;27;87544;-81
2023/07/28 07:42:47;;;;;;;1.60;1.30;;;19.80;99.90;;;;;;5007333;28;87784;-81
2023/07/28 07:45:13;;;;;;;3.75;1.15;;;19.90;99.90;;;;;;5022179;28;91542;-80
2023/07/28 07:47:42;;;;;;;2.22;1.10;;;20.00;99.90;;;;;;5005618;27;88765;-81
2023/07/28 07:50:09;;;;;;;5.75;1.10;;;20.00;99.90;;;;;;5008453;27;87483;-85
2023/07/28 07:52:36;;;;;;;1.45;1.15;;;20.10;99.90;;;;;;4989494;28;89573;-84
2023/07/28 07:55:03;;;;;;;2.97;0.80;;;20.20;99.90;;;;;;5006155;28;89514;-84
2023/07/28 07:57:29;;;;;;;2.78;0.88;;;20.30;99.90;;;;;;4997601;28;92737;-84
2023/07/28 07:59:57;;;;;;;3.00;0.90;;;20.30;99.90;;;;;;5022134;27;88417;-84
2023/07/28 08:02:22;;;;;;;1.50;0.80;;;20.30;99.90;;;;;;4987933;28;89022;-82
2023/07/28 08:04:48;;;;;;;3.88;0.90;;;20.30;99.90;;;;;;4987469;28;91012;-83
2023/07/28 08:07:16;;;;;;;3.42;0.73;;;20.40;99.90;;;;;;5021584;28;89695;-83
2023/07/28 08:09:41;;;;;;;1.70;1.02;;;20.40;99.90;;;;;;5022407;28;87666;-83
2023/07/28 08:12:08;;;;;;;1.38;0.60;;;20.50;99.90;;;;;;5002419;28;90071;-86
2023/07/28 08:14:34;;;;;;;1.08;0.60;;;20.70;99.90;;;;;;4995141;28;90536;-87
2023/07/28 08:16:59;;;;;;;0.95;0.60;;;20.70;99.80;;;;;;4993843;28;88781;-87
2023/07/28 08:19:25;;;;;;;0.82;0.50;;;20.80;99.40;;;;;;4993373;28;89392;-85
2023/07/28 08:21:51;;;;;;;1.45;0.57;;;21.00;99.30;;;;;;4986353;28;89574;-84
2023/07/28 08:24:17;;;;;;;3.63;0.70;;;21.00;98.90;;;;;;4991396;28;90378;-85
2023/07/28 08:26:42;;;;;;;0.93;0.50;;;21.00;98.50;;;;;;4990608;28;90055;-84
2023/07/28 08:29:08;;;;;;;2.00;0.60;;;21.00;98.80;;;;;;4993662;28;87071;-85
2023/07/28 08:31:33;;;;;;;1.00;0.68;;;21.10;98.30;;;;;;4989594;28;87733;-85
2023/07/28 08:33:59;;;;;;;0.40;0.30;;;21.00;97.90;;;;;;4988122;28;90510;-86
2023/07/28 08:36:25;;;;;;;4.85;0.55;;;21.00;98.10;;;;;;4991576;28;90857;-86
2023/07/28 08:38:50;;;;;;;1.23;0.50;;;21.00;98.20;;;;;;4991614;28;87654;-86
2023/07/28 08:41:16;;;;;;;5.20;0.60;;;21.00;98.50;;;;;;4992572;28;88878;-86
2023/07/28 08:43:42;;;;;;;0.40;0.40;;;20.90;98.30;;;;;;4994525;28;90861;-86
2023/07/28 08:46:07;;;;;;;1.88;0.45;;;21.00;98.80;;;;;;5028733;28;89978;-86
2023/07/28 08:48:33;;;;;;;0.75;0.50;;;21.00;98.90;;;;;;4991267;28;87251;-86
2023/07/28 08:50:59;;;;;;;3.40;0.63;;;21.10;99.10;;;;;;4998896;28;88877;-86
2023/07/28 08:53:25;;;;;;;1.58;0.50;;;21.20;99.20;;;;;;4990733;28;90439;-86
2023/07/28 08:55:51;;;;;;;3.67;0.60;;;21.30;99.50;;;;;;4990420;28;89828;-86
2023/07/28 08:58:22;;;;;;;1.92;0.60;;;21.50;98.60;;;;;;4991875;28;87738;-86
2023/07/28 09:00:51;;;;;;;2.95;0.60;;;21.50;97.00;;;;;;4992069;27;88155;-84
2023/07/28 09:03:18;;;;;;;2.05;0.60;;;21.60;97.90;;;;;;4997538;28;89536;-83
2023/07/28 09:05:45;;;;;;;0.40;0.40;;;21.70;95.90;;;;;;4990526;28;90053;-80
2023/07/28 09:08:12;;;;;;;1.02;0.50;;;21.70;96.00;;;;;;4987001;28;88783;-80
2023/07/28 09:10:49;;;;;;;0.50;0.50;;;21.80;96.20;;;;;;5004278;28;87912;-80
2023/07/28 09:13:18;;;;;;;1.48;0.50;;;21.90;96.10;;;;;;5006639;28;88856;-80
2023/07/28 09:15:45;;;;;;;1.50;0.50;;;22.00;96.00;;;;;;5005574;28;88043;-80
2023/07/28 09:18:12;;;;;;;2.25;0.57;;;22.10;96.30;;;;;;5007291;28;87821;-80
2023/07/28 09:20:43;;;;;;;0.93;0.70;;;22.20;96.50;;;;;;5005329;28;87786;-80
2023/07/28 09:23:10;;;;;;;0.93;0.47;;;22.30;95.80;;;;;;5003110;28;88876;-80
2023/07/28 09:25:36;;;;;;;1.45;0.63;;;22.40;95.00;;;;;;4989613;28;90462;-80
2023/07/28 09:28:03;;;;;;;1.00;0.40;;;22.40;95.20;;;;;;5006902;28;95276;-79
2023/07/28 09:30:49;;;;;;;0.75;0.40;;;22.50;94.80;;;;;;5006167;28;87668;-83
2023/07/28 09:33:30;;;;;;;1.33;0.20;;;22.60;93.80;;;;;;4990626;28;94877;-82
2023/07/28 09:35:55;;;;;;;2.92;0.50;;;22.70;94.00;;;;;;5022574;27;90687;-82
2023/07/28 09:38:22;;;;;;;3.30;0.50;;;22.80;94.00;;;;;;5019361;28;87570;-83
2023/07/28 09:40:49;;;;;;;1.02;0.32;;;22.90;94.90;;;;;;5021260;27;88916;-82
2023/07/28 09:43:14;;;;;;;1.27;0.50;;;23.00;94.00;;;;;;4987882;28;91616;-82
2023/07/28 09:45:41;;;;;;;1.33;0.38;;;23.10;93.80;;;;;;4988021;28;91206;-82
2023/07/28 09:48:10;;;;;;;1.30;0.40;;;23.20;93.80;;;;;;4988926;28;87386;-82
2023/07/28 09:50:38;;;;;;;2.65;0.40;;;23.10;93.50;;;;;;5022348;28;89586;-83
2023/07/28 09:53:07;;;;;;;2.88;0.68;;;23.20;94.10;;;;;;4990586;28;89345;-83
2023/07/28 09:55:34;;;;;;;0.90;0.50;;;23.30;94.30;;;;;;5006419;28;91269;-82
2023/07/28 09:58:04;;;;;;;2.83;0.70;;;23.40;93.70;;;;;;5023307;28;88506;-82
2023/07/28 10:00:30;;;;;;;0.50;0.50;;;23.40;93.30;;;;;;4990354;28;88858;-82
2023/07/28 10:02:57;;;;;;;2.08;0.50;;;23.40;93.20;;;;;;5007142;28;91292;-83
2023/07/28 10:05:24;;;;;;;2.42;0.60;;;23.20;93.10;;;;;;5021844;27;89780;-81
2023/07/28 10:07:51;;;;;;;0.63;0.40;;;23.10;93.10;;;;;;4988599;28;87783;-82
2023/07/28 10:10:17;;;;;;;2.45;0.80;;;23.00;93.80;;;;;;5021485;27;89110;-83
2023/07/28 10:12:55;;;;;;;0.80;0.32;;;22.90;94.20;;;;;;4991237;28;90171;-82
2023/07/28 10:15:28;;;;;;;0.88;0.30;;;22.90;94.20;;;;;;4989234;28;89900;-81
2023/07/28 10:17:57;;;;;;;0.93;0.40;;;23.00;94.10;;;;;;5023085;27;87342;-82
2023/07/28 10:20:38;;;;;;;1.75;0.40;;;23.00;94.10;;;;;;4990640;28;89553;-84
2023/07/28 10:23:24;;;;;;;0.63;0.40;;;23.00;93.50;;;;;;4995004;28;92033;-84
2023/07/28 10:25:59;;;;;;;0.30;0.30;;;23.00;94.40;;;;;;4988594;28;91762;-85
2023/07/28 10:28:44;;;;;;;0.63;0.50;;;22.90;93.90;;;;;;4989779;28;87889;-81
2023/07/28 10:31:11;;;;;;;0.50;0.40;;;22.80;93.80;;;;;;5004365;28;88155;-82
2023/07/28 10:33:39;;;;;;;1.83;0.32;;;22.80;94.50;;;;;;5025881;28;90408;-82
2023/07/28 10:36:37;;;;;;;1.20;0.40;;;22.80;94.30;;;;;;4995622;28;90860;-81
2023/07/28 10:39:07;;;;;;;0.30;0.30;;;23.00;94.80;;;;;;4988339;28;89637;-82
2023/07/28 10:41:35;;;;;;;0.75;0.35;;;23.00;94.10;;;;;;4994972;28;89157;-84
2023/07/28 10:44:01;;;;;;;0.65;0.40;;;22.80;95.00;;;;;;5018542;28;90519;-84
2023/07/28 10:46:28;;;;;;;0.30;0.30;;;22.70;95.50;;;;;;5019089;28;91027;-81
2023/07/28 10:48:53;;;;;;;0.75;0.30;;;22.70;95.30;;;;;;5004033;27;88592;-81
2023/07/28 10:51:29;;;;;;;0.90;0.50;;;22.70;95.90;;;;;;5003530;28;87408;-81
2023/07/28 10:53:59;;;;;;;0.32;0.32;;;22.80;95.00;;;;;;5003362;28;88720;-82
2023/07/28 10:56:25;;;;;;;0.40;0.40;;;22.70;94.70;;;;;;5003943;27;88225;-82
2023/07/28 10:58:59;;;;;;;0.40;0.40;;;22.60;95.30;;;;;;4987881;28;87619;-83
2023/07/28 11:01:35;;;;;;;3.05;0.60;;;22.70;95.60;;;;;;5004793;28;88715;-82
2023/07/28 11:04:16;;;;;;;1.13;0.50;;;22.60;95.50;;;;;;5018756;28;91244;-82
2023/07/28 11:06:49;;;;;;;0.90;0.45;;;22.40;96.20;;;;;;5020263;28;91261;-84
2023/07/28 11:09:18;;;;;;;1.42;0.57;;;22.40;96.60;;;;;;5020704;28;87916;-82
2023/07/28 11:11:44;;;;;;;0.73;0.70;;;22.40;97.10;;;;;;4985737;28;90338;-84
2023/07/28 11:14:09;;;;;;;0.55;0.55;;;22.50;97.20;;;;;;4986524;28;93175;-83
2023/07/28 11:16:37;;;;;;;1.30;0.88;;;22.50;97.20;;;;;;4993622;28;90892;-83
2023/07/28 11:19:06;;;;;;;0.90;0.90;;;22.50;97.10;;;;;;4985743;28;88104;-82
2023/07/28 11:21:37;;;;;;;0.90;0.90;;;22.50;97.10;;;;;;4987260;28;90518;-82
2023/07/28 11:24:03;;;;;;;1.13;0.90;;;22.50;96.90;;;;;;4987006;28;95374;-81
2023/07/28 11:26:29;;;;;;;1.30;0.77;;;22.40;96.40;;;;;;5003865;27;88294;-82
2023/07/28 11:28:54;;;;;;;0.95;0.80;;;22.20;96.30;;;;;;5017479;28;87737;-79
2023/07/28 11:31:25;;;;;;;1.40;0.90;;;22.10;96.00;;;;;;5005641;27;86653;-79
2023/07/28 11:33:51;;;;;;;2.15;0.73;;;22.00;96.80;;;;;;5002335;28;88380;-79
2023/07/28 11:36:28;;;;;;;0.80;0.80;;;22.00;96.90;;;;;;5003841;28;87892;-79
2023/07/28 11:38:55;;;;;;;0.80;0.80;;;22.10;97.20;;;;;;5002780;28;88984;-79
2023/07/28 11:41:22;;;;;;;0.75;0.75;;;22.10;97.00;;;;;;5019527;28;89011;-79
2023/07/28 11:43:49;;;;;;;1.45;0.90;;;22.10;97.30;;;;;;5002659;28;88807;-80
2023/07/28 11:46:33;;;;;;;1.58;0.80;;;22.10;97.30;;;;;;5019185;28;91128;-79
2023/07/28 11:49:08;;;;;;;2.08;0.80;;;22.10;97.20;;;;;;5005448;28;87855;-79
2023/07/28 11:51:43;;;;;;;3.00;0.73;;;22.10;97.10;;;;;;5002938;28;87836;-79
2023/07/28 11:54:11;;;;;;;1.58;0.80;;;22.20;97.30;;;;;;5002897;28;87767;-80
2023/07/28 11:56:37;;;;;;;1.42;0.95;;;22.20;97.60;;;;;;5002793;28;93847;-80
2023/07/28 11:59:04;;;;;;;2.60;1.00;;;22.20;97.20;;;;;;5004037;28;87650;-80
2023/07/28 12:01:29;;;;;;;2.20;0.70;;;22.00;97.20;;;;;;4988850;28;89716;-80
2023/07/28 12:03:55;;;;;;;0.80;0.80;;;22.00;97.40;;;;;;5006989;28;88695;-80
2023/07/28 12:06:20;;;;;;;1.25;0.60;;;21.90;97.90;;;;;;5006927;28;89199;-80
2023/07/28 12:08:46;;;;;;;0.63;0.63;;;21.90;97.70;;;;;;5021509;28;87694;-81
2023/07/28 12:11:17;;;;;;;2.40;0.70;;;21.90;97.80;;;;;;4987510;28;89172;-81
2023/07/28 12:13:52;;;;;;;0.98;0.50;;;21.80;97.80;;;;;;4996458;28;91512;-82
2023/07/28 12:16:41;;;;;;;0.70;0.50;;;21.60;97.10;;;;;;5008916;27;90192;-82
2023/07/28 12:19:07;;;;;;;2.05;0.50;;;21.40;97.70;;;;;;5005640;28;87884;-82
2023/07/28 12:21:32;;;;;;;0.65;0.60;;;21.20;98.10;;;;;;5007526;28;87068;-81
2023/07/28 12:23:58;;;;;;;1.58;0.50;;;21.20;98.80;;;;;;5010652;28;88655;-82
2023/07/28 12:26:24;;;;;;;1.15;0.60;;;21.20;98.80;;;;;;5006817;28;88295;-82
2023/07/28 12:28:49;;;;;;;0.50;0.50;;;21.10;99.50;;;;;;4997249;28;88539;-82
2023/07/28 12:31:15;;;;;;;0.90;0.50;;;21.10;99.70;;;;;;5001457;28;88101;-81
2023/07/28 12:33:40;;;;;;;1.50;0.50;;;21.00;99.70;;;;;;5004331;28;89431;-81
2023/07/28 12:36:06;;;;;;;1.63;0.50;;;21.00;99.90;;;;;;5005171;28;88518;-82
2023/07/28 12:38:31;;;;;;;0.60;0.60;;;21.00;99.60;;;;;;5005165;27;87641;-82
2023/07/28 12:40:57;;;;;;;0.93;0.30;;;21.00;99.30;;;;;;5005528;28;93968;-81
2023/07/28 12:43:25;;;;;;;0.30;0.30;;;21.00;98.90;;;;;;5007685;28;87858;-80
2023/07/28 12:45:50;;;;;;;0.77;0.40;;;20.90;98.70;;;;;;4987955;28;89324;-80